sensor_id;sensor_type;location;lat;lon;timestamp;pressure;altitude;pressure_sealevel;temperature;humidity
65010;BME280;51556;50.002;22.014;2023-03-21T09:21:17;99166.08;;;12.52;68.76
65010;BME280;51556;50.002;22.014;2023-03-21T09:23:44;99166.09;;;12.65;68.49
65010;BME280;51556;50.002;22.014;2023-03-21T09:26:10;99165.43;;;12.73;67.36
65010;BME280;51556;50.002;22.014;2023-03-21T09:28:37;99166.33;;;12.78;66.60
65010;BME280;51556;50.002;22.014;2023-03-21T09:31:03;99168.14;;;12.82;66.13
65010;BME280;51556;50.002;22.014;2023-03-21T09:33:29;99167.95;;;12.82;65.30
65010;BME280;51556;50.002;22.014;2023-03-21T09:35:55;99164.28;;;12.90;64.99
65010;BME280;51556;50.002;22.014;2023-03-21T09:38:22;99167.66;;;12.98;64.58
65010;BME280;51556;50.002;22.014;2023-03-21T09:41:23;99171.04;;;13.07;63.69
65010;BME280;51556;50.002;22.014;2023-03-21T09:47:14;99176.41;;;13.15;62.59
65010;BME280;51556;50.002;22.014;2023-03-21T09:49:48;99178.64;;;13.02;61.93
65010;BME280;51556;50.002;22.014;2023-03-21T09:55:05;99177.16;;;12.95;60.45
65010;BME280;51556;50.002;22.014;2023-03-21T09:57:44;99177.42;;;12.93;60.25
65010;BME280;51556;50.002;22.014;2023-03-21T10:00:19;99176.02;;;12.92;60.46
65010;BME280;51556;50.002;22.014;2023-03-21T10:02:48;99173.98;;;12.95;60.78
65010;BME280;51556;50.002;22.014;2023-03-21T10:05:24;99170.84;;;12.94;60.55
65010;BME280;51556;50.002;22.014;2023-03-21T10:08:10;99170.02;;;12.97;60.52
65010;BME280;51556;50.002;22.014;2023-03-21T10:10:43;99171.00;;;13.03;60.42
65010;BME280;51556;50.002;22.014;2023-03-21T10:13:25;99169.12;;;13.06;59.85
65010;BME280;51556;50.002;22.014;2023-03-21T10:15:56;99169.77;;;13.12;60.44
65010;BME280;51556;50.002;22.014;2023-03-21T10:18:24;99172.66;;;13.21;60.08
65010;BME280;51556;50.002;22.014;2023-03-21T10:20:51;99172.71;;;13.28;59.39
65010;BME280;51556;50.002;22.014;2023-03-21T10:23:20;99175.99;;;13.30;58.67
65010;BME280;51556;50.002;22.014;2023-03-21T10:25:52;99175.56;;;13.32;58.76
65010;BME280;51556;50.002;22.014;2023-03-21T10:28:26;99174.92;;;13.39;59.28
65010;BME280;51556;50.002;22.014;2023-03-21T10:30:55;99171.41;;;13.47;58.78
65010;BME280;51556;50.002;22.014;2023-03-21T10:33:34;99168.95;;;13.52;58.72
65010;BME280;51556;50.002;22.014;2023-03-21T10:36:04;99166.05;;;13.58;58.88
65010;BME280;51556;50.002;22.014;2023-03-21T10:38:31;99162.70;;;13.62;58.56
65010;BME280;51556;50.002;22.014;2023-03-21T10:40:57;99165.61;;;13.64;58.70
65010;BME280;51556;50.002;22.014;2023-03-21T10:45:52;99161.02;;;13.73;58.64
65010;BME280;51556;50.002;22.014;2023-03-21T10:48:18;99160.05;;;13.83;58.77
65010;BME280;51556;50.002;22.014;2023-03-21T10:50:46;99163.33;;;13.89;57.64
65010;BME280;51556;50.002;22.014;2023-03-21T10:53:17;99161.41;;;13.88;57.98
65010;BME280;51556;50.002;22.014;2023-03-21T10:55:46;99155.88;;;13.98;57.52
65010;BME280;51556;50.002;22.014;2023-03-21T10:58:35;99157.04;;;14.08;57.78
65010;BME280;51556;50.002;22.014;2023-03-21T11:01:09;99152.65;;;14.19;57.04
65010;BME280;51556;50.002;22.014;2023-03-21T11:03:41;99159.58;;;14.35;56.57
65010;BME280;51556;50.002;22.014;2023-03-21T11:06:12;99151.02;;;14.52;56.27
65010;BME280;51556;50.002;22.014;2023-03-21T11:08:42;99144.84;;;14.71;56.58
65010;BME280;51556;50.002;22.014;2023-03-21T11:11:09;99148.27;;;14.86;56.29
65010;BME280;51556;50.002;22.014;2023-03-21T11:13:43;99145.80;;;14.89;55.37
65010;BME280;51556;50.002;22.014;2023-03-21T11:16:12;99151.16;;;14.84;55.20
65010;BME280;51556;50.002;22.014;2023-03-21T11:18:44;99149.14;;;14.79;54.80
65010;BME280;51556;50.002;22.014;2023-03-21T11:21:13;99149.25;;;14.76;54.22
65010;BME280;51556;50.002;22.014;2023-03-21T11:23:42;99146.46;;;14.67;53.78
65010;BME280;51556;50.002;22.014;2023-03-21T11:26:17;99145.91;;;14.55;53.98
65010;BME280;51556;50.002;22.014;2023-03-21T11:28:45;99148.77;;;14.47;54.11
65010;BME280;51556;50.002;22.014;2023-03-21T11:31:11;99148.86;;;14.37;53.53
65010;BME280;51556;50.002;22.014;2023-03-21T11:34:06;99150.48;;;14.24;53.98
65010;BME280;51556;50.002;22.014;2023-03-21T11:36:37;99145.89;;;14.12;54.91
65010;BME280;51556;50.002;22.014;2023-03-21T11:39:28;99146.39;;;14.12;55.35
65010;BME280;51556;50.002;22.014;2023-03-21T11:41:55;99144.43;;;14.00;55.82
65010;BME280;51556;50.002;22.014;2023-03-21T11:44:26;99146.79;;;13.95;56.62
65010;BME280;51556;50.002;22.014;2023-03-21T11:46:52;99146.66;;;13.89;57.52
65010;BME280;51556;50.002;22.014;2023-03-21T11:49:19;99144.56;;;13.84;57.26
65010;BME280;51556;50.002;22.014;2023-03-21T11:51:56;99140.94;;;13.83;57.51
65010;BME280;51556;50.002;22.014;2023-03-21T11:54:45;99136.48;;;13.79;57.71
65010;BME280;51556;50.002;22.014;2023-03-21T11:59:57;99135.64;;;13.74;58.75
65010;BME280;51556;50.002;22.014;2023-03-21T12:02:59;99133.86;;;13.74;58.63
65010;BME280;51556;50.002;22.014;2023-03-21T12:05:33;99136.55;;;13.70;58.96
65010;BME280;51556;50.002;22.014;2023-03-21T12:08:07;99136.46;;;13.67;58.68
65010;BME280;51556;50.002;22.014;2023-03-21T12:10:49;99140.83;;;13.64;58.77
65010;BME280;51556;50.002;22.014;2023-03-21T12:16:52;99141.08;;;13.50;58.68
65010;BME280;51556;50.002;22.014;2023-03-21T12:24:54;99141.05;;;13.10;60.55
65010;BME280;51556;50.002;22.014;2023-03-21T12:30:11;99135.02;;;13.02;61.56
65010;BME280;51556;50.002;22.014;2023-03-21T12:32:47;99133.25;;;12.98;62.48
65010;BME280;51556;50.002;22.014;2023-03-21T12:35:43;99133.13;;;12.96;62.56
65010;BME280;51556;50.002;22.014;2023-03-21T12:38:28;99132.67;;;12.94;62.66
65010;BME280;51556;50.002;22.014;2023-03-21T12:41:21;99127.02;;;12.85;62.84
65010;BME280;51556;50.002;22.014;2023-03-21T12:46:35;99128.15;;;12.79;63.43
65010;BME280;51556;50.002;22.014;2023-03-21T12:49:08;99127.77;;;12.79;64.01
65010;BME280;51556;50.002;22.014;2023-03-21T12:51:42;99126.65;;;12.76;64.14
65010;BME280;51556;50.002;22.014;2023-03-21T12:54:12;99128.16;;;12.73;64.83
65010;BME280;51556;50.002;22.014;2023-03-21T12:57:01;99124.80;;;12.73;65.31
65010;BME280;51556;50.002;22.014;2023-03-21T12:59:49;99123.92;;;12.73;65.23
65010;BME280;51556;50.002;22.014;2023-03-21T13:04:56;99120.44;;;12.67;65.33
65010;BME280;51556;50.002;22.014;2023-03-21T13:07:25;99121.90;;;12.47;65.36
65010;BME280;51556;50.002;22.014;2023-03-21T13:09:53;99117.31;;;12.38;65.59
65010;BME280;51556;50.002;22.014;2023-03-21T13:12:44;99117.63;;;12.34;65.71
65010;BME280;51556;50.002;22.014;2023-03-21T13:15:31;99109.69;;;12.39;65.89
65010;BME280;51556;50.002;22.014;2023-03-21T13:18:08;99108.84;;;12.43;66.11
65010;BME280;51556;50.002;22.014;2023-03-21T13:20:46;99105.44;;;12.49;65.95
65010;BME280;51556;50.002;22.014;2023-03-21T13:23:13;99108.44;;;12.49;65.71
65010;BME280;51556;50.002;22.014;2023-03-21T13:25:45;99105.71;;;12.56;66.30
65010;BME280;51556;50.002;22.014;2023-03-21T13:28:34;99109.27;;;12.68;66.98
65010;BME280;51556;50.002;22.014;2023-03-21T13:31:23;99107.29;;;12.79;65.97
65010;BME280;51556;50.002;22.014;2023-03-21T13:33:51;99104.77;;;12.90;66.01
65010;BME280;51556;50.002;22.014;2023-03-21T13:36:23;99099.58;;;13.09;66.21
65010;BME280;51556;50.002;22.014;2023-03-21T13:38:51;99099.48;;;13.38;66.77
65010;BME280;51556;50.002;22.014;2023-03-21T13:41:29;99096.17;;;13.58;66.05
65010;BME280;51556;50.002;22.014;2023-03-21T13:51:50;99087.17;;;13.91;64.09
65010;BME280;51556;50.002;22.014;2023-03-21T13:57:36;99079.61;;;13.85;62.65
65010;BME280;51556;50.002;22.014;2023-03-21T14:05:27;99079.58;;;13.74;61.80
65010;BME280;51556;50.002;22.014;2023-03-21T14:07:56;99080.63;;;13.70;62.66
65010;BME280;51556;50.002;22.014;2023-03-21T14:10:29;99079.29;;;13.73;62.63
65010;BME280;51556;50.002;22.014;2023-03-21T14:12:58;99079.27;;;13.65;61.01
65010;BME280;51556;50.002;22.014;2023-03-21T14:15:29;99083.27;;;13.50;61.40
65010;BME280;51556;50.002;22.014;2023-03-21T14:17:59;99085.52;;;13.42;61.84
65010;BME280;51556;50.002;22.014;2023-03-21T14:20:26;99085.23;;;13.32;61.72
65010;BME280;51556;50.002;22.014;2023-03-21T14:22:53;99087.91;;;13.22;61.95
65010;BME280;51556;50.002;22.014;2023-03-21T14:25:20;99097.77;;;13.01;62.49
65010;BME280;51556;50.002;22.014;2023-03-21T14:27:49;99104.07;;;12.85;64.40
65010;BME280;51556;50.002;22.014;2023-03-21T14:30:27;99106.33;;;12.67;64.11
65010;BME280;51556;50.002;22.014;2023-03-21T14:32:55;99101.40;;;12.44;63.88
65010;BME280;51556;50.002;22.014;2023-03-21T14:35:24;99103.91;;;12.28;64.57
65010;BME280;51556;50.002;22.014;2023-03-21T14:37:52;99109.19;;;12.14;65.17
65010;BME280;51556;50.002;22.014;2023-03-21T14:40:24;99107.90;;;12.00;65.56
65010;BME280;51556;50.002;22.014;2023-03-21T14:42:52;99105.48;;;11.89;65.75
65010;BME280;51556;50.002;22.014;2023-03-21T14:45:26;99109.20;;;11.79;66.32
65010;BME280;51556;50.002;22.014;2023-03-21T14:47:56;99112.63;;;11.71;66.54
65010;BME280;51556;50.002;22.014;2023-03-21T14:50:27;99115.11;;;11.65;67.21
65010;BME280;51556;50.002;22.014;2023-03-21T14:52:55;99116.36;;;11.64;67.23
65010;BME280;51556;50.002;22.014;2023-03-21T14:55:22;99117.91;;;11.60;67.16
65010;BME280;51556;50.002;22.014;2023-03-21T14:57:48;99114.70;;;11.51;67.27
65010;BME280;51556;50.002;22.014;2023-03-21T15:00:22;99114.09;;;11.49;67.61
65010;BME280;51556;50.002;22.014;2023-03-21T15:02:50;99111.80;;;11.49;67.74
65010;BME280;51556;50.002;22.014;2023-03-21T15:05:23;99109.08;;;11.51;67.52
65010;BME280;51556;50.002;22.014;2023-03-21T15:07:55;99110.28;;;11.47;67.51
65010;BME280;51556;50.002;22.014;2023-03-21T15:10:23;99108.31;;;11.48;67.56
65010;BME280;51556;50.002;22.014;2023-03-21T15:12:54;99110.77;;;11.48;67.69
65010;BME280;51556;50.002;22.014;2023-03-21T15:15:21;99112.25;;;11.45;68.00
65010;BME280;51556;50.002;22.014;2023-03-21T15:17:48;99112.57;;;11.41;68.18
65010;BME280;51556;50.002;22.014;2023-03-21T15:20:18;99115.46;;;11.38;68.28
65010;BME280;51556;50.002;22.014;2023-03-21T15:22:53;99113.63;;;11.41;68.20
65010;BME280;51556;50.002;22.014;2023-03-21T15:25:25;99110.65;;;11.41;68.36
65010;BME280;51556;50.002;22.014;2023-03-21T15:27:53;99109.88;;;11.43;68.45
65010;BME280;51556;50.002;22.014;2023-03-21T15:30:27;99111.05;;;11.39;68.40
65010;BME280;51556;50.002;22.014;2023-03-21T15:32:58;99111.39;;;11.34;68.36
65010;BME280;51556;50.002;22.014;2023-03-21T15:35:37;99112.82;;;11.33;68.25
65010;BME280;51556;50.002;22.014;2023-03-21T15:38:03;99109.71;;;11.31;68.68
65010;BME280;51556;50.002;22.014;2023-03-21T15:40:31;99109.48;;;11.33;68.90
65010;BME280;51556;50.002;22.014;2023-03-21T15:43:13;99110.80;;;11.36;68.74
65010;BME280;51556;50.002;22.014;2023-03-21T15:45:56;99108.54;;;11.35;68.45
65010;BME280;51556;50.002;22.014;2023-03-21T15:48:26;99107.81;;;11.35;68.07
65010;BME280;51556;50.002;22.014;2023-03-21T15:51:02;99110.08;;;11.36;68.21
65010;BME280;51556;50.002;22.014;2023-03-21T15:53:43;99111.11;;;11.37;68.23
65010;BME280;51556;50.002;22.014;2023-03-21T15:56:23;99109.38;;;11.36;68.82
65010;BME280;51556;50.002;22.014;2023-03-21T15:59:13;99107.95;;;11.36;68.78
65010;BME280;51556;50.002;22.014;2023-03-21T16:01:39;99110.53;;;11.38;68.74
65010;BME280;51556;50.002;22.014;2023-03-21T16:04:07;99103.41;;;11.41;68.70
65010;BME280;51556;50.002;22.014;2023-03-21T16:06:35;99102.98;;;11.43;68.47
65010;BME280;51556;50.002;22.014;2023-03-21T16:11:54;99104.70;;;11.45;68.21
65010;BME280;51556;50.002;22.014;2023-03-21T16:14:22;99109.44;;;11.45;68.31
65010;BME280;51556;50.002;22.014;2023-03-21T16:16:48;99112.10;;;11.45;68.28
65010;BME280;51556;50.002;22.014;2023-03-21T16:19:14;99113.19;;;11.44;68.35
65010;BME280;51556;50.002;22.014;2023-03-21T16:21:40;99115.81;;;11.45;68.26
65010;BME280;51556;50.002;22.014;2023-03-21T16:24:06;99119.17;;;11.44;68.03
65010;BME280;51556;50.002;22.014;2023-03-21T16:26:35;99121.11;;;11.44;68.14
65010;BME280;51556;50.002;22.014;2023-03-21T16:29:03;99128.83;;;11.40;67.87
65010;BME280;51556;50.002;22.014;2023-03-21T16:31:31;99128.85;;;11.33;68.30
65010;BME280;51556;50.002;22.014;2023-03-21T16:33:57;99127.33;;;11.20;68.11
65010;BME280;51556;50.002;22.014;2023-03-21T16:36:26;99131.90;;;11.04;68.41
65010;BME280;51556;50.002;22.014;2023-03-21T16:38:53;99136.38;;;10.96;68.92
65010;BME280;51556;50.002;22.014;2023-03-21T16:41:21;99132.02;;;10.89;68.79
65010;BME280;51556;50.002;22.014;2023-03-21T16:43:47;99135.49;;;10.84;68.64
65010;BME280;51556;50.002;22.014;2023-03-21T16:46:24;99137.02;;;10.80;68.81
65010;BME280;51556;50.002;22.014;2023-03-21T16:48:55;99143.23;;;10.79;69.26
65010;BME280;51556;50.002;22.014;2023-03-21T16:51:22;99142.11;;;10.81;69.15
65010;BME280;51556;50.002;22.014;2023-03-21T16:53:50;99141.46;;;10.79;68.92
65010;BME280;51556;50.002;22.014;2023-03-21T16:56:18;99138.62;;;10.75;68.80
65010;BME280;51556;50.002;22.014;2023-03-21T16:58:44;99138.98;;;10.74;69.12
65010;BME280;51556;50.002;22.014;2023-03-21T17:01:15;99135.27;;;10.75;69.12
65010;BME280;51556;50.002;22.014;2023-03-21T17:03:44;99138.73;;;10.77;68.87
65010;BME280;51556;50.002;22.014;2023-03-21T17:06:15;99142.63;;;10.76;68.50
65010;BME280;51556;50.002;22.014;2023-03-21T17:08:42;99146.34;;;10.76;69.17
65010;BME280;51556;50.002;22.014;2023-03-21T17:11:09;99145.55;;;10.78;69.22
65010;BME280;51556;50.002;22.014;2023-03-21T17:13:40;99151.34;;;10.78;69.05
65010;BME280;51556;50.002;22.014;2023-03-21T17:16:11;99157.02;;;10.77;69.14
65010;BME280;51556;50.002;22.014;2023-03-21T17:18:37;99156.86;;;10.71;68.85
65010;BME280;51556;50.002;22.014;2023-03-21T17:21:13;99165.60;;;10.74;69.22
65010;BME280;51556;50.002;22.014;2023-03-21T17:24:01;99168.11;;;10.71;69.02
65010;BME280;51556;50.002;22.014;2023-03-21T17:29:13;99164.80;;;10.64;69.52
65010;BME280;51556;50.002;22.014;2023-03-21T17:31:39;99161.12;;;10.63;69.39
65010;BME280;51556;50.002;22.014;2023-03-21T17:34:05;99160.52;;;10.66;69.89
65010;BME280;51556;50.002;22.014;2023-03-21T17:36:35;99164.33;;;10.68;69.32
65010;BME280;51556;50.002;22.014;2023-03-21T17:39:03;99160.46;;;10.68;69.29
65010;BME280;51556;50.002;22.014;2023-03-21T17:41:30;99163.95;;;10.69;69.69
65010;BME280;51556;50.002;22.014;2023-03-21T17:43:55;99168.55;;;10.68;69.15
65010;BME280;51556;50.002;22.014;2023-03-21T17:46:22;99166.46;;;10.67;69.27
65010;BME280;51556;50.002;22.014;2023-03-21T17:48:49;99173.46;;;10.69;69.31
65010;BME280;51556;50.002;22.014;2023-03-21T17:51:15;99169.00;;;10.71;69.65
65010;BME280;51556;50.002;22.014;2023-03-21T17:53:45;99176.05;;;10.71;69.43
65010;BME280;51556;50.002;22.014;2023-03-21T17:56:21;99176.98;;;10.69;69.62
65010;BME280;51556;50.002;22.014;2023-03-21T17:58:50;99178.98;;;10.67;69.68
65010;BME280;51556;50.002;22.014;2023-03-21T18:01:16;99181.65;;;10.65;69.82
65010;BME280;51556;50.002;22.014;2023-03-21T18:03:41;99181.91;;;10.63;69.65
65010;BME280;51556;50.002;22.014;2023-03-21T18:06:13;99179.66;;;10.61;70.06
65010;BME280;51556;50.002;22.014;2023-03-21T18:08:40;99180.83;;;10.64;70.06
65010;BME280;51556;50.002;22.014;2023-03-21T18:11:06;99177.86;;;10.63;70.04
65010;BME280;51556;50.002;22.014;2023-03-21T18:13:32;99179.08;;;10.63;69.77
65010;BME280;51556;50.002;22.014;2023-03-21T18:15:57;99182.36;;;10.65;69.66
65010;BME280;51556;50.002;22.014;2023-03-21T18:18:22;99189.52;;;10.68;69.91
65010;BME280;51556;50.002;22.014;2023-03-21T18:20:51;99190.53;;;10.69;69.91
65010;BME280;51556;50.002;22.014;2023-03-21T18:23:16;99193.58;;;10.67;70.11
65010;BME280;51556;50.002;22.014;2023-03-21T18:25:43;99196.97;;;10.65;70.14
65010;BME280;51556;50.002;22.014;2023-03-21T18:28:09;99198.02;;;10.66;70.17
65010;BME280;51556;50.002;22.014;2023-03-21T18:30:34;99199.43;;;10.66;70.21
65010;BME280;51556;50.002;22.014;2023-03-21T18:33:00;99202.63;;;10.65;70.50
65010;BME280;51556;50.002;22.014;2023-03-21T18:35:25;99205.11;;;10.64;70.61
65010;BME280;51556;50.002;22.014;2023-03-21T18:37:51;99197.38;;;10.64;71.05
65010;BME280;51556;50.002;22.014;2023-03-21T18:40:17;99195.78;;;10.64;71.18
65010;BME280;51556;50.002;22.014;2023-03-21T18:42:48;99203.90;;;10.63;71.24
65010;BME280;51556;50.002;22.014;2023-03-21T18:45:14;99200.77;;;10.61;70.94
65010;BME280;51556;50.002;22.014;2023-03-21T18:47:43;99200.38;;;10.57;71.59
65010;BME280;51556;50.002;22.014;2023-03-21T18:50:09;99203.16;;;10.52;71.54
65010;BME280;51556;50.002;22.014;2023-03-21T18:52:35;99200.38;;;10.50;71.61
65010;BME280;51556;50.002;22.014;2023-03-21T18:58:09;99207.41;;;10.51;71.53
65010;BME280;51556;50.002;22.014;2023-03-21T19:00:35;99208.74;;;10.47;71.63
65010;BME280;51556;50.002;22.014;2023-03-21T19:03:00;99207.23;;;10.45;71.35
65010;BME280;51556;50.002;22.014;2023-03-21T19:05:28;99210.27;;;10.43;71.31
65010;BME280;51556;50.002;22.014;2023-03-21T19:07:54;99210.43;;;10.43;71.62
65010;BME280;51556;50.002;22.014;2023-03-21T19:10:21;99212.41;;;10.42;71.97
65010;BME280;51556;50.002;22.014;2023-03-21T19:12:50;99209.17;;;10.44;71.70
65010;BME280;51556;50.002;22.014;2023-03-21T19:15:18;99210.31;;;10.48;71.44
65010;BME280;51556;50.002;22.014;2023-03-21T19:17:45;99209.98;;;10.54;71.32
65010;BME280;51556;50.002;22.014;2023-03-21T19:20:11;99210.90;;;10.58;71.33
65010;BME280;51556;50.002;22.014;2023-03-21T19:22:39;99210.30;;;10.61;71.17
65010;BME280;51556;50.002;22.014;2023-03-21T19:25:05;99211.55;;;10.60;71.18
65010;BME280;51556;50.002;22.014;2023-03-21T19:27:32;99208.77;;;10.59;71.17
65010;BME280;51556;50.002;22.014;2023-03-21T19:29:58;99208.73;;;10.60;70.96
65010;BME280;51556;50.002;22.014;2023-03-21T19:32:26;99206.79;;;10.61;70.75
65010;BME280;51556;50.002;22.014;2023-03-21T19:34:52;99210.89;;;10.59;70.80
65010;BME280;51556;50.002;22.014;2023-03-21T19:37:17;99211.29;;;10.57;70.85
65010;BME280;51556;50.002;22.014;2023-03-21T19:39:43;99215.85;;;10.58;70.94
65010;BME280;51556;50.002;22.014;2023-03-21T19:42:09;99217.03;;;10.59;71.08
65010;BME280;51556;50.002;22.014;2023-03-21T19:44:34;99215.92;;;10.61;70.81
65010;BME280;51556;50.002;22.014;2023-03-21T19:47:01;99214.48;;;10.63;71.05
65010;BME280;51556;50.002;22.014;2023-03-21T19:49:26;99213.20;;;10.64;70.66
65010;BME280;51556;50.002;22.014;2023-03-21T19:51:51;99220.36;;;10.66;70.90
65010;BME280;51556;50.002;22.014;2023-03-21T19:54:17;99221.07;;;10.66;70.54
65010;BME280;51556;50.002;22.014;2023-03-21T19:56:43;99218.01;;;10.62;70.94
65010;BME280;51556;50.002;22.014;2023-03-21T19:59:09;99221.46;;;10.64;70.88
65010;BME280;51556;50.002;22.014;2023-03-21T20:01:35;99224.06;;;10.66;70.89
65010;BME280;51556;50.002;22.014;2023-03-21T20:04:01;99226.65;;;10.68;70.91
65010;BME280;51556;50.002;22.014;2023-03-21T20:06:26;99221.84;;;10.70;70.72
65010;BME280;51556;50.002;22.014;2023-03-21T20:08:52;99222.87;;;10.71;70.74
65010;BME280;51556;50.002;22.014;2023-03-21T20:11:18;99225.52;;;10.71;70.63
65010;BME280;51556;50.002;22.014;2023-03-21T20:13:44;99224.68;;;10.69;70.78
65010;BME280;51556;50.002;22.014;2023-03-21T20:16:14;99225.13;;;10.66;70.55
65010;BME280;51556;50.002;22.014;2023-03-21T20:18:43;99228.88;;;10.64;70.78
65010;BME280;51556;50.002;22.014;2023-03-21T20:21:09;99225.34;;;10.64;70.92
65010;BME280;51556;50.002;22.014;2023-03-21T20:23:34;99227.64;;;10.64;70.88
65010;BME280;51556;50.002;22.014;2023-03-21T20:26:09;99231.37;;;10.63;70.81
65010;BME280;51556;50.002;22.014;2023-03-21T20:28:36;99231.41;;;10.61;70.88
65010;BME280;51556;50.002;22.014;2023-03-21T20:31:01;99233.73;;;10.60;70.80
65010;BME280;51556;50.002;22.014;2023-03-21T20:33:28;99235.36;;;10.59;70.81
65010;BME280;51556;50.002;22.014;2023-03-21T20:35:55;99236.66;;;10.56;70.98
65010;BME280;51556;50.002;22.014;2023-03-21T20:38:20;99239.33;;;10.55;70.71
65010;BME280;51556;50.002;22.014;2023-03-21T20:40:46;99239.84;;;10.56;71.03
65010;BME280;51556;50.002;22.014;2023-03-21T20:43:12;99240.90;;;10.55;70.90
65010;BME280;51556;50.002;22.014;2023-03-21T20:45:37;99236.92;;;10.53;70.74
65010;BME280;51556;50.002;22.014;2023-03-21T20:48:03;99239.08;;;10.51;70.73
65010;BME280;51556;50.002;22.014;2023-03-21T20:50:28;99238.39;;;10.50;70.69
65010;BME280;51556;50.002;22.014;2023-03-21T20:52:59;99238.04;;;10.50;70.62
65010;BME280;51556;50.002;22.014;2023-03-21T20:55:28;99232.96;;;10.50;70.89
65010;BME280;51556;50.002;22.014;2023-03-21T20:57:53;99235.69;;;10.47;70.85
65010;BME280;51556;50.002;22.014;2023-03-21T21:00:19;99235.06;;;10.44;70.73
65010;BME280;51556;50.002;22.014;2023-03-21T21:02:48;99236.86;;;10.42;70.80
65010;BME280;51556;50.002;22.014;2023-03-21T21:05:14;99235.39;;;10.38;70.96
65010;BME280;51556;50.002;22.014;2023-03-21T21:07:41;99234.55;;;10.37;71.08
65010;BME280;51556;50.002;22.014;2023-03-21T21:10:09;99237.08;;;10.34;71.39
65010;BME280;51556;50.002;22.014;2023-03-21T21:12:39;99236.45;;;10.31;71.19
65010;BME280;51556;50.002;22.014;2023-03-21T21:15:07;99238.14;;;10.28;71.07
65010;BME280;51556;50.002;22.014;2023-03-21T21:17:34;99239.41;;;10.26;71.25
65010;BME280;51556;50.002;22.014;2023-03-21T21:20:00;99238.59;;;10.24;70.94
65010;BME280;51556;50.002;22.014;2023-03-21T21:22:26;99241.24;;;10.23;71.27
65010;BME280;51556;50.002;22.014;2023-03-21T21:24:55;99238.08;;;10.23;70.96
65010;BME280;51556;50.002;22.014;2023-03-21T21:27:21;99238.82;;;10.22;71.06
65010;BME280;51556;50.002;22.014;2023-03-21T21:29:46;99240.23;;;10.22;71.07
65010;BME280;51556;50.002;22.014;2023-03-21T21:32:14;99238.55;;;10.25;71.24
65010;BME280;51556;50.002;22.014;2023-03-21T21:34:40;99235.30;;;10.29;70.78
65010;BME280;51556;50.002;22.014;2023-03-21T21:37:06;99238.95;;;10.30;70.69
65010;BME280;51556;50.002;22.014;2023-03-21T21:39:32;99238.11;;;10.28;70.60
65010;BME280;51556;50.002;22.014;2023-03-21T21:41:59;99241.07;;;10.23;70.33
65010;BME280;51556;50.002;22.014;2023-03-21T21:44:24;99241.19;;;10.17;70.87
65010;BME280;51556;50.002;22.014;2023-03-21T21:46:52;99242.52;;;10.13;71.08
65010;BME280;51556;50.002;22.014;2023-03-21T21:49:18;99241.21;;;10.09;71.13
65010;BME280;51556;50.002;22.014;2023-03-21T21:51:50;99241.79;;;10.07;71.18
65010;BME280;51556;50.002;22.014;2023-03-21T21:54:16;99239.57;;;10.04;70.74
65010;BME280;51556;50.002;22.014;2023-03-21T21:56:43;99237.50;;;10.03;71.08
65010;BME280;51556;50.002;22.014;2023-03-21T21:59:12;99238.64;;;10.00;70.67
65010;BME280;51556;50.002;22.014;2023-03-21T22:01:40;99239.05;;;9.98;70.38
65010;BME280;51556;50.002;22.014;2023-03-21T22:04:07;99235.82;;;9.93;70.03
65010;BME280;51556;50.002;22.014;2023-03-21T22:06:35;99238.76;;;9.89;70.03
65010;BME280;51556;50.002;22.014;2023-03-21T22:09:02;99241.46;;;9.86;70.35
65010;BME280;51556;50.002;22.014;2023-03-21T22:11:29;99238.84;;;9.85;69.98
65010;BME280;51556;50.002;22.014;2023-03-21T22:13:55;99239.23;;;9.84;69.78
65010;BME280;51556;50.002;22.014;2023-03-21T22:16:20;99241.22;;;9.81;69.66
65010;BME280;51556;50.002;22.014;2023-03-21T22:18:46;99243.16;;;9.73;69.67
65010;BME280;51556;50.002;22.014;2023-03-21T22:21:11;99243.82;;;9.61;70.07
65010;BME280;51556;50.002;22.014;2023-03-21T22:23:37;99245.83;;;9.51;70.50
65010;BME280;51556;50.002;22.014;2023-03-21T22:26:06;99243.13;;;9.45;70.57
65010;BME280;51556;50.002;22.014;2023-03-21T22:28:32;99242.63;;;9.44;70.54
65010;BME280;51556;50.002;22.014;2023-03-21T22:31:08;99242.50;;;9.42;69.94
65010;BME280;51556;50.002;22.014;2023-03-21T22:33:35;99245.02;;;9.39;69.95
65010;BME280;51556;50.002;22.014;2023-03-21T22:36:00;99239.77;;;9.38;69.95
65010;BME280;51556;50.002;22.014;2023-03-21T22:38:26;99243.86;;;9.35;69.99
65010;BME280;51556;50.002;22.014;2023-03-21T22:40:56;99242.13;;;9.34;69.77
65010;BME280;51556;50.002;22.014;2023-03-21T22:43:22;99241.89;;;9.30;69.45
65010;BME280;51556;50.002;22.014;2023-03-21T22:45:48;99247.38;;;9.28;69.26
65010;BME280;51556;50.002;22.014;2023-03-21T22:48:13;99245.89;;;9.25;69.30
65010;BME280;51556;50.002;22.014;2023-03-21T22:50:40;99247.52;;;9.22;69.79
65010;BME280;51556;50.002;22.014;2023-03-21T22:53:06;99246.99;;;9.22;69.49
65010;BME280;51556;50.002;22.014;2023-03-21T22:55:32;99247.95;;;9.19;69.45
65010;BME280;51556;50.002;22.014;2023-03-21T22:57:57;99247.29;;;9.17;69.42
65010;BME280;51556;50.002;22.014;2023-03-21T23:00:25;99252.80;;;9.14;68.84
65010;BME280;51556;50.002;22.014;2023-03-21T23:02:51;99255.52;;;9.09;69.77
65010;BME280;51556;50.002;22.014;2023-03-21T23:05:16;99255.45;;;9.04;70.10
65010;BME280;51556;50.002;22.014;2023-03-21T23:07:42;99250.49;;;8.97;69.77
65010;BME280;51556;50.002;22.014;2023-03-21T23:10:08;99254.30;;;8.92;69.76
65010;BME280;51556;50.002;22.014;2023-03-21T23:12:36;99253.95;;;8.91;70.56
65010;BME280;51556;50.002;22.014;2023-03-21T23:15:02;99251.52;;;8.91;70.40
65010;BME280;51556;50.002;22.014;2023-03-21T23:17:27;99251.68;;;8.91;70.57